sensor_id;sensor_type;location;lat;lon;timestamp;P1;durP1;ratioP1;P2;durP2;ratioP2
77838;SDS011;67034;43.226;27.932;2023-05-29T00:00:04;8.10;;;5.90;;
77838;SDS011;67034;43.226;27.932;2023-05-29T00:02:34;8.18;;;6.35;;
77838;SDS011;67034;43.226;27.932;2023-05-29T00:05:00;8.90;;;5.80;;
77838;SDS011;67034;43.226;27.932;2023-05-29T00:07:28;8.25;;;6.07;;
77838;SDS011;67034;43.226;27.932;2023-05-29T00:09:55;9.65;;;6.35;;
77838;SDS011;67034;43.226;27.932;2023-05-29T00:12:21;7.95;;;6.05;;
77838;SDS011;67034;43.226;27.932;2023-05-29T00:14:47;10.10;;;7.40;;
77838;SDS011;67034;43.226;27.932;2023-05-29T00:17:13;9.98;;;6.55;;
77838;SDS011;67034;43.226;27.932;2023-05-29T00:19:40;9.93;;;6.82;;
77838;SDS011;67034;43.226;27.932;2023-05-29T00:22:06;10.48;;;7.75;;
77838;SDS011;67034;43.226;27.932;2023-05-29T00:24:32;9.75;;;7.45;;
77838;SDS011;67034;43.226;27.932;2023-05-29T00:26:59;8.90;;;7.10;;
77838;SDS011;67034;43.226;27.932;2023-05-29T00:29:26;12.25;;;7.50;;
77838;SDS011;67034;43.226;27.932;2023-05-29T00:31:52;12.82;;;6.68;;
77838;SDS011;67034;43.226;27.932;2023-05-29T00:34:18;9.32;;;7.25;;
77838;SDS011;67034;43.226;27.932;2023-05-29T00:36:44;9.57;;;7.20;;
77838;SDS011;67034;43.226;27.932;2023-05-29T00:39:11;13.20;;;7.82;;
77838;SDS011;67034;43.226;27.932;2023-05-29T00:41:37;9.70;;;7.32;;
77838;SDS011;67034;43.226;27.932;2023-05-29T00:44:04;14.27;;;7.88;;
77838;SDS011;67034;43.226;27.932;2023-05-29T00:46:30;11.55;;;7.65;;
77838;SDS011;67034;43.226;27.932;2023-05-29T00:48:57;9.35;;;6.60;;
77838;SDS011;67034;43.226;27.932;2023-05-29T00:51:23;12.40;;;7.57;;
77838;SDS011;67034;43.226;27.932;2023-05-29T00:53:50;14.75;;;9.07;;
77838;SDS011;67034;43.226;27.932;2023-05-29T00:56:17;13.40;;;9.00;;
77838;SDS011;67034;43.226;27.932;2023-05-29T00:58:45;12.75;;;8.00;;
77838;SDS011;67034;43.226;27.932;2023-05-29T01:01:14;12.05;;;8.25;;
77838;SDS011;67034;43.226;27.932;2023-05-29T01:03:40;18.88;;;9.55;;
77838;SDS011;67034;43.226;27.932;2023-05-29T01:06:07;18.30;;;9.48;;
77838;SDS011;67034;43.226;27.932;2023-05-29T01:08:33;15.07;;;10.18;;
77838;SDS011;67034;43.226;27.932;2023-05-29T01:11:01;15.52;;;9.77;;
77838;SDS011;67034;43.226;27.932;2023-05-29T01:13:33;19.27;;;11.10;;
77838;SDS011;67034;43.226;27.932;2023-05-29T01:16:03;19.20;;;10.18;;
77838;SDS011;67034;43.226;27.932;2023-05-29T01:18:38;18.15;;;11.90;;
77838;SDS011;67034;43.226;27.932;2023-05-29T01:21:08;17.58;;;11.27;;
77838;SDS011;67034;43.226;27.932;2023-05-29T01:29:18;20.27;;;12.10;;
77838;SDS011;67034;43.226;27.932;2023-05-29T01:31:48;20.33;;;11.60;;
77838;SDS011;67034;43.226;27.932;2023-05-29T01:34:15;18.55;;;11.32;;
77838;SDS011;67034;43.226;27.932;2023-05-29T01:36:41;20.30;;;12.65;;
77838;SDS011;67034;43.226;27.932;2023-05-29T01:39:07;16.90;;;11.27;;
77838;SDS011;67034;43.226;27.932;2023-05-29T01:41:33;19.55;;;11.95;;
77838;SDS011;67034;43.226;27.932;2023-05-29T01:44:02;19.88;;;11.65;;
77838;SDS011;67034;43.226;27.932;2023-05-29T01:46:29;19.33;;;12.65;;
77838;SDS011;67034;43.226;27.932;2023-05-29T01:48:54;25.30;;;13.27;;
77838;SDS011;67034;43.226;27.932;2023-05-29T01:51:21;19.85;;;12.85;;
77838;SDS011;67034;43.226;27.932;2023-05-29T01:53:46;24.00;;;14.00;;
77838;SDS011;67034;43.226;27.932;2023-05-29T01:56:12;22.88;;;12.85;;
77838;SDS011;67034;43.226;27.932;2023-05-29T01:58:38;24.15;;;14.00;;
77838;SDS011;67034;43.226;27.932;2023-05-29T02:01:07;21.60;;;13.43;;
77838;SDS011;67034;43.226;27.932;2023-05-29T02:03:33;19.98;;;12.13;;
77838;SDS011;67034;43.226;27.932;2023-05-29T02:05:59;22.73;;;13.57;;
77838;SDS011;67034;43.226;27.932;2023-05-29T02:08:25;22.10;;;13.48;;
77838;SDS011;67034;43.226;27.932;2023-05-29T02:10:51;21.30;;;14.02;;
77838;SDS011;67034;43.226;27.932;2023-05-29T02:13:17;21.40;;;13.43;;
77838;SDS011;67034;43.226;27.932;2023-05-29T02:15:43;23.05;;;13.00;;
77838;SDS011;67034;43.226;27.932;2023-05-29T02:18:10;22.75;;;14.85;;
77838;SDS011;67034;43.226;27.932;2023-05-29T02:20:38;21.35;;;12.88;;
77838;SDS011;67034;43.226;27.932;2023-05-29T02:23:04;21.67;;;13.23;;
77838;SDS011;67034;43.226;27.932;2023-05-29T02:25:30;24.02;;;14.45;;
77838;SDS011;67034;43.226;27.932;2023-05-29T02:27:55;22.85;;;14.38;;
77838;SDS011;67034;43.226;27.932;2023-05-29T02:30:21;21.65;;;13.70;;
77838;SDS011;67034;43.226;27.932;2023-05-29T02:32:47;20.80;;;13.23;;
77838;SDS011;67034;43.226;27.932;2023-05-29T02:35:14;18.30;;;12.27;;
77838;SDS011;67034;43.226;27.932;2023-05-29T02:37:40;19.63;;;12.38;;
77838;SDS011;67034;43.226;27.932;2023-05-29T02:40:06;19.48;;;13.95;;
77838;SDS011;67034;43.226;27.932;2023-05-29T02:42:33;26.55;;;12.07;;
77838;SDS011;67034;43.226;27.932;2023-05-29T02:44:59;16.05;;;11.63;;
77838;SDS011;67034;43.226;27.932;2023-05-29T02:47:25;16.20;;;12.10;;
77838;SDS011;67034;43.226;27.932;2023-05-29T02:49:51;19.38;;;12.15;;
77838;SDS011;67034;43.226;27.932;2023-05-29T02:52:18;17.75;;;12.23;;
77838;SDS011;67034;43.226;27.932;2023-05-29T02:54:44;15.80;;;11.50;;
77838;SDS011;67034;43.226;27.932;2023-05-29T02:57:09;15.45;;;11.02;;
77838;SDS011;67034;43.226;27.932;2023-05-29T02:59:35;20.50;;;11.23;;
77838;SDS011;67034;43.226;27.932;2023-05-29T03:02:02;16.65;;;10.63;;
77838;SDS011;67034;43.226;27.932;2023-05-29T03:04:28;15.70;;;11.15;;
77838;SDS011;67034;43.226;27.932;2023-05-29T03:06:53;16.85;;;11.57;;
77838;SDS011;67034;43.226;27.932;2023-05-29T03:09:20;15.68;;;10.27;;
77838;SDS011;67034;43.226;27.932;2023-05-29T03:11:46;19.38;;;10.70;;
77838;SDS011;67034;43.226;27.932;2023-05-29T03:14:15;16.67;;;11.02;;
77838;SDS011;67034;43.226;27.932;2023-05-29T03:16:42;16.48;;;9.88;;
77838;SDS011;67034;43.226;27.932;2023-05-29T03:19:08;17.02;;;11.45;;
77838;SDS011;67034;43.226;27.932;2023-05-29T03:21:34;15.30;;;10.57;;
77838;SDS011;67034;43.226;27.932;2023-05-29T03:24:01;16.00;;;9.57;;
77838;SDS011;67034;43.226;27.932;2023-05-29T03:26:29;18.52;;;10.63;;
77838;SDS011;67034;43.226;27.932;2023-05-29T03:28:54;14.02;;;10.05;;
77838;SDS011;67034;43.226;27.932;2023-05-29T03:31:20;16.65;;;10.10;;
77838;SDS011;67034;43.226;27.932;2023-05-29T03:33:46;17.63;;;10.27;;
77838;SDS011;67034;43.226;27.932;2023-05-29T03:36:12;19.23;;;10.85;;
77838;SDS011;67034;43.226;27.932;2023-05-29T03:38:38;17.15;;;10.30;;
77838;SDS011;67034;43.226;27.932;2023-05-29T03:41:03;15.18;;;10.05;;
77838;SDS011;67034;43.226;27.932;2023-05-29T03:43:30;14.20;;;10.15;;
77838;SDS011;67034;43.226;27.932;2023-05-29T03:45:56;17.63;;;9.70;;
77838;SDS011;67034;43.226;27.932;2023-05-29T03:48:22;15.68;;;10.98;;
77838;SDS011;67034;43.226;27.932;2023-05-29T03:50:49;18.13;;;10.57;;
77838;SDS011;67034;43.226;27.932;2023-05-29T03:53:15;17.98;;;10.98;;
77838;SDS011;67034;43.226;27.932;2023-05-29T03:55:40;17.33;;;10.57;;
77838;SDS011;67034;43.226;27.932;2023-05-29T03:58:06;16.95;;;11.10;;
77838;SDS011;67034;43.226;27.932;2023-05-29T04:00:34;17.05;;;10.25;;
77838;SDS011;67034;43.226;27.932;2023-05-29T04:03:00;19.83;;;11.10;;
77838;SDS011;67034;43.226;27.932;2023-05-29T04:05:25;15.23;;;9.25;;
77838;SDS011;67034;43.226;27.932;2023-05-29T04:07:51;16.35;;;10.60;;
77838;SDS011;67034;43.226;27.932;2023-05-29T04:10:17;18.02;;;10.68;;
77838;SDS011;67034;43.226;27.932;2023-05-29T04:12:43;15.18;;;9.88;;
77838;SDS011;67034;43.226;27.932;2023-05-29T04:15:09;15.35;;;10.15;;
77838;SDS011;67034;43.226;27.932;2023-05-29T04:17:36;20.08;;;10.85;;
77838;SDS011;67034;43.226;27.932;2023-05-29T04:20:02;17.85;;;10.40;;
77838;SDS011;67034;43.226;27.932;2023-05-29T04:22:33;15.10;;;9.90;;
77838;SDS011;67034;43.226;27.932;2023-05-29T04:24:59;14.48;;;9.32;;
77838;SDS011;67034;43.226;27.932;2023-05-29T04:27:24;16.73;;;9.82;;
77838;SDS011;67034;43.226;27.932;2023-05-29T04:29:50;19.55;;;10.85;;
77838;SDS011;67034;43.226;27.932;2023-05-29T04:32:16;19.55;;;11.10;;
77838;SDS011;67034;43.226;27.932;2023-05-29T04:34:43;21.48;;;10.68;;
77838;SDS011;67034;43.226;27.932;2023-05-29T04:37:09;19.63;;;11.10;;
77838;SDS011;67034;43.226;27.932;2023-05-29T04:39:35;18.65;;;10.15;;
77838;SDS011;67034;43.226;27.932;2023-05-29T04:42:00;16.00;;;10.45;;
77838;SDS011;67034;43.226;27.932;2023-05-29T04:44:26;15.25;;;10.68;;
77838;SDS011;67034;43.226;27.932;2023-05-29T04:46:52;11.32;;;8.68;;
77838;SDS011;67034;43.226;27.932;2023-05-29T04:49:18;13.13;;;8.35;;
77838;SDS011;67034;43.226;27.932;2023-05-29T04:51:45;19.65;;;9.68;;
77838;SDS011;67034;43.226;27.932;2023-05-29T04:54:11;14.52;;;9.90;;
77838;SDS011;67034;43.226;27.932;2023-05-29T04:56:37;16.80;;;10.77;;
77838;SDS011;67034;43.226;27.932;2023-05-29T04:59:05;17.52;;;10.73;;
77838;SDS011;67034;43.226;27.932;2023-05-29T05:01:31;18.17;;;11.48;;
77838;SDS011;67034;43.226;27.932;2023-05-29T05:03:58;15.52;;;10.88;;
77838;SDS011;67034;43.226;27.932;2023-05-29T05:06:24;15.75;;;10.52;;
77838;SDS011;67034;43.226;27.932;2023-05-29T05:08:52;20.20;;;12.43;;
77838;SDS011;67034;43.226;27.932;2023-05-29T05:11:17;17.23;;;10.90;;
77838;SDS011;67034;43.226;27.932;2023-05-29T05:13:43;19.13;;;11.13;;
77838;SDS011;67034;43.226;27.932;2023-05-29T05:16:10;18.38;;;10.85;;
77838;SDS011;67034;43.226;27.932;2023-05-29T05:18:36;16.80;;;10.27;;
77838;SDS011;67034;43.226;27.932;2023-05-29T05:21:01;13.45;;;10.15;;
77838;SDS011;67034;43.226;27.932;2023-05-29T05:23:29;12.77;;;9.98;;
77838;SDS011;67034;43.226;27.932;2023-05-29T05:25:56;15.18;;;9.90;;
77838;SDS011;67034;43.226;27.932;2023-05-29T05:28:21;16.98;;;10.32;;
77838;SDS011;67034;43.226;27.932;2023-05-29T05:30:47;14.05;;;10.57;;
77838;SDS011;67034;43.226;27.932;2023-05-29T05:33:13;17.10;;;9.93;;
77838;SDS011;67034;43.226;27.932;2023-05-29T05:35:39;14.02;;;9.73;;
77838;SDS011;67034;43.226;27.932;2023-05-29T05:38:05;14.27;;;9.20;;
77838;SDS011;67034;43.226;27.932;2023-05-29T05:40:31;17.30;;;11.32;;
77838;SDS011;67034;43.226;27.932;2023-05-29T05:42:58;15.38;;;10.05;;
77838;SDS011;67034;43.226;27.932;2023-05-29T05:45:24;16.50;;;9.85;;
77838;SDS011;67034;43.226;27.932;2023-05-29T05:47:50;15.60;;;9.65;;
77838;SDS011;67034;43.226;27.932;2023-05-29T05:50:15;14.25;;;9.32;;
77838;SDS011;67034;43.226;27.932;2023-05-29T05:52:41;12.85;;;9.13;;
77838;SDS011;67034;43.226;27.932;2023-05-29T05:55:07;10.95;;;7.85;;
77838;SDS011;67034;43.226;27.932;2023-05-29T05:57:33;11.18;;;8.55;;
77838;SDS011;67034;43.226;27.932;2023-05-29T06:00:02;13.63;;;8.07;;
77838;SDS011;67034;43.226;27.932;2023-05-29T06:02:33;12.13;;;8.13;;
77838;SDS011;67034;43.226;27.932;2023-05-29T06:04:58;13.55;;;8.73;;
77838;SDS011;67034;43.226;27.932;2023-05-29T06:07:24;11.32;;;8.38;;
77838;SDS011;67034;43.226;27.932;2023-05-29T06:09:50;14.15;;;9.05;;
77838;SDS011;67034;43.226;27.932;2023-05-29T06:12:16;9.85;;;7.85;;
77838;SDS011;67034;43.226;27.932;2023-05-29T06:14:41;12.93;;;8.55;;
77838;SDS011;67034;43.226;27.932;2023-05-29T06:17:08;13.48;;;8.63;;
77838;SDS011;67034;43.226;27.932;2023-05-29T06:19:34;13.68;;;9.10;;
77838;SDS011;67034;43.226;27.932;2023-05-29T06:22:00;16.52;;;9.95;;
77838;SDS011;67034;43.226;27.932;2023-05-29T06:24:26;13.77;;;9.50;;
77838;SDS011;67034;43.226;27.932;2023-05-29T06:26:52;12.30;;;9.15;;
77838;SDS011;67034;43.226;27.932;2023-05-29T06:29:17;15.52;;;10.40;;
77838;SDS011;67034;43.226;27.932;2023-05-29T06:31:43;10.85;;;8.40;;
77838;SDS011;67034;43.226;27.932;2023-05-29T06:34:10;13.05;;;7.93;;
77838;SDS011;67034;43.226;27.932;2023-05-29T06:36:36;12.50;;;8.70;;
77838;SDS011;67034;43.226;27.932;2023-05-29T06:39:02;11.85;;;8.73;;
77838;SDS011;67034;43.226;27.932;2023-05-29T06:41:27;12.93;;;9.18;;
77838;SDS011;67034;43.226;27.932;2023-05-29T06:43:53;12.32;;;9.40;;
77838;SDS011;67034;43.226;27.932;2023-05-29T06:46:19;15.60;;;9.60;;
77838;SDS011;67034;43.226;27.932;2023-05-29T06:48:45;14.23;;;9.37;;
77838;SDS011;67034;43.226;27.932;2023-05-29T06:51:12;15.70;;;9.13;;
77838;SDS011;67034;43.226;27.932;2023-05-29T06:53:38;13.85;;;9.75;;
77838;SDS011;67034;43.226;27.932;2023-05-29T06:56:04;13.25;;;8.90;;
77838;SDS011;67034;43.226;27.932;2023-05-29T06:58:30;13.77;;;9.43;;
77838;SDS011;67034;43.226;27.932;2023-05-29T07:00:56;11.30;;;9.02;;
77838;SDS011;67034;43.226;27.932;2023-05-29T07:03:25;14.05;;;8.95;;
77838;SDS011;67034;43.226;27.932;2023-05-29T07:05:51;11.20;;;8.27;;
77838;SDS011;67034;43.226;27.932;2023-05-29T07:08:18;15.57;;;9.65;;
77838;SDS011;67034;43.226;27.932;2023-05-29T07:10:44;13.55;;;8.82;;
77838;SDS011;67034;43.226;27.932;2023-05-29T07:13:10;11.32;;;6.85;;
77838;SDS011;67034;43.226;27.932;2023-05-29T07:15:38;9.00;;;6.78;;
77838;SDS011;67034;43.226;27.932;2023-05-29T07:18:04;11.35;;;7.20;;
77838;SDS011;67034;43.226;27.932;2023-05-29T07:20:30;8.90;;;5.65;;
77838;SDS011;67034;43.226;27.932;2023-05-29T07:22:55;9.45;;;5.78;;
77838;SDS011;67034;43.226;27.932;2023-05-29T07:25:23;6.88;;;4.95;;
77838;SDS011;67034;43.226;27.932;2023-05-29T07:27:48;9.80;;;5.72;;
77838;SDS011;67034;43.226;27.932;2023-05-29T07:30:14;7.55;;;4.80;;
77838;SDS011;67034;43.226;27.932;2023-05-29T07:32:40;8.10;;;5.15;;
77838;SDS011;67034;43.226;27.932;2023-05-29T07:35:06;7.20;;;5.00;;
77838;SDS011;67034;43.226;27.932;2023-05-29T07:37:34;9.23;;;5.35;;
77838;SDS011;67034;43.226;27.932;2023-05-29T07:40:00;8.77;;;5.43;;
77838;SDS011;67034;43.226;27.932;2023-05-29T07:42:32;9.05;;;5.55;;
77838;SDS011;67034;43.226;27.932;2023-05-29T07:44:58;10.15;;;4.88;;
77838;SDS011;67034;43.226;27.932;2023-05-29T07:47:24;15.20;;;6.93;;
77838;SDS011;67034;43.226;27.932;2023-05-29T07:49:49;7.20;;;4.80;;
77838;SDS011;67034;43.226;27.932;2023-05-29T07:52:17;7.85;;;5.63;;
77838;SDS011;67034;43.226;27.932;2023-05-29T07:54:43;8.88;;;5.85;;
77838;SDS011;67034;43.226;27.932;2023-05-29T07:57:09;8.85;;;5.07;;
77838;SDS011;67034;43.226;27.932;2023-05-29T07:59:36;9.30;;;5.03;;
77838;SDS011;67034;43.226;27.932;2023-05-29T08:02:02;5.38;;;4.60;;
77838;SDS011;67034;43.226;27.932;2023-05-29T08:04:31;5.80;;;4.13;;
77838;SDS011;67034;43.226;27.932;2023-05-29T08:06:57;8.75;;;5.20;;
77838;SDS011;67034;43.226;27.932;2023-05-29T08:09:23;9.68;;;4.43;;
77838;SDS011;67034;43.226;27.932;2023-05-29T08:11:49;6.82;;;4.30;;
77838;SDS011;67034;43.226;27.932;2023-05-29T08:14:15;5.88;;;3.90;;
77838;SDS011;67034;43.226;27.932;2023-05-29T08:16:42;8.52;;;4.43;;
77838;SDS011;67034;43.226;27.932;2023-05-29T08:19:09;9.40;;;5.07;;
77838;SDS011;67034;43.226;27.932;2023-05-29T08:21:34;7.28;;;4.45;;
77838;SDS011;67034;43.226;27.932;2023-05-29T08:24:03;6.63;;;4.32;;
77838;SDS011;67034;43.226;27.932;2023-05-29T08:26:32;6.32;;;4.85;;
77838;SDS011;67034;43.226;27.932;2023-05-29T08:28:58;6.72;;;4.63;;
77838;SDS011;67034;43.226;27.932;2023-05-29T08:31:23;8.45;;;4.55;;
77838;SDS011;67034;43.226;27.932;2023-05-29T08:33:53;6.18;;;4.35;;
77838;SDS011;67034;43.226;27.932;2023-05-29T08:36:20;6.93;;;4.75;;
77838;SDS011;67034;43.226;27.932;2023-05-29T08:38:48;6.88;;;4.15;;
77838;SDS011;67034;43.226;27.932;2023-05-29T08:41:21;6.70;;;4.63;;
77838;SDS011;67034;43.226;27.932;2023-05-29T08:43:54;6.25;;;4.75;;
77838;SDS011;67034;43.226;27.932;2023-05-29T08:46:23;7.30;;;4.93;;
77838;SDS011;67034;43.226;27.932;2023-05-29T08:48:49;6.47;;;4.72;;
77838;SDS011;67034;43.226;27.932;2023-05-29T08:51:21;5.80;;;4.13;;
77838;SDS011;67034;43.226;27.932;2023-05-29T08:53:54;5.13;;;4.05;;
77838;SDS011;67034;43.226;27.932;2023-05-29T08:56:21;5.13;;;4.18;;
77838;SDS011;67034;43.226;27.932;2023-05-29T08:58:47;4.57;;;3.60;;
77838;SDS011;67034;43.226;27.932;2023-05-29T09:01:13;6.33;;;4.43;;
77838;SDS011;67034;43.226;27.932;2023-05-29T09:03:39;5.70;;;3.78;;
77838;SDS011;67034;43.226;27.932;2023-05-29T09:06:07;6.97;;;3.90;;
77838;SDS011;67034;43.226;27.932;2023-05-29T09:08:34;5.45;;;3.97;;
77838;SDS011;67034;43.226;27.932;2023-05-29T09:11:00;5.47;;;3.55;;
77838;SDS011;67034;43.226;27.932;2023-05-29T09:13:26;5.30;;;4.40;;
77838;SDS011;67034;43.226;27.932;2023-05-29T09:15:56;6.15;;;4.28;;
77838;SDS011;67034;43.226;27.932;2023-05-29T09:18:28;5.45;;;4.20;;
77838;SDS011;67034;43.226;27.932;2023-05-29T09:20:55;5.40;;;3.92;;
77838;SDS011;67034;43.226;27.932;2023-05-29T09:23:20;5.80;;;4.13;;
77838;SDS011;67034;43.226;27.932;2023-05-29T09:25:51;6.78;;;4.43;;
77838;SDS011;67034;43.226;27.932;2023-05-29T09:28:18;5.13;;;4.10;;
77838;SDS011;67034;43.226;27.932;2023-05-29T09:30:47;5.43;;;3.88;;
77838;SDS011;67034;43.226;27.932;2023-05-29T09:33:13;5.70;;;4.07;;
77838;SDS011;67034;43.226;27.932;2023-05-29T09:35:40;4.18;;;3.78;;
77838;SDS011;67034;43.226;27.932;2023-05-29T09:38:07;4.63;;;4.03;;
77838;SDS011;67034;43.226;27.932;2023-05-29T09:40:34;5.30;;;4.32;;
77838;SDS011;67034;43.226;27.932;2023-05-29T09:43:03;6.45;;;4.88;;
77838;SDS011;67034;43.226;27.932;2023-05-29T09:45:30;6.20;;;5.05;;
77838;SDS011;67034;43.226;27.932;2023-05-29T09:47:56;6.50;;;5.32;;
77838;SDS011;67034;43.226;27.932;2023-05-29T09:50:22;6.55;;;5.32;;
77838;SDS011;67034;43.226;27.932;2023-05-29T09:52:51;6.80;;;5.28;;
77838;SDS011;67034;43.226;27.932;2023-05-29T09:55:18;7.57;;;5.35;;
77838;SDS011;67034;43.226;27.932;2023-05-29T09:57:46;7.90;;;5.32;;
77838;SDS011;67034;43.226;27.932;2023-05-29T10:00:15;8.05;;;6.50;;
77838;SDS011;67034;43.226;27.932;2023-05-29T10:02:42;9.23;;;5.85;;
77838;SDS011;67034;43.226;27.932;2023-05-29T10:05:08;8.70;;;6.93;;
77838;SDS011;67034;43.226;27.932;2023-05-29T10:07:37;11.57;;;6.35;;
77838;SDS011;67034;43.226;27.932;2023-05-29T10:10:08;8.38;;;6.50;;
77838;SDS011;67034;43.226;27.932;2023-05-29T10:12:36;7.40;;;6.13;;
77838;SDS011;67034;43.226;27.932;2023-05-29T10:15:05;6.63;;;5.88;;
77838;SDS011;67034;43.226;27.932;2023-05-29T10:17:38;11.00;;;6.30;;
77838;SDS011;67034;43.226;27.932;2023-05-29T10:20:13;10.48;;;6.18;;
77838;SDS011;67034;43.226;27.932;2023-05-29T10:22:45;6.97;;;6.28;;
77838;SDS011;67034;43.226;27.932;2023-05-29T10:25:13;8.15;;;6.70;;
77838;SDS011;67034;43.226;27.932;2023-05-29T10:27:42;9.70;;;7.07;;
77838;SDS011;67034;43.226;27.932;2023-05-29T10:30:09;8.65;;;6.95;;
77838;SDS011;67034;43.226;27.932;2023-05-29T10:32:43;9.68;;;6.80;;
77838;SDS011;67034;43.226;27.932;2023-05-29T10:35:19;7.82;;;6.55;;
77838;SDS011;67034;43.226;27.932;2023-05-29T10:37:54;10.35;;;6.85;;
77838;SDS011;67034;43.226;27.932;2023-05-29T10:40:23;7.55;;;6.75;;
77838;SDS011;67034;43.226;27.932;2023-05-29T10:42:50;14.38;;;10.40;;
77838;SDS011;67034;43.226;27.932;2023-05-29T10:51:26;8.43;;;6.75;;
77838;SDS011;67034;43.226;27.932;2023-05-29T10:53:54;7.93;;;6.28;;
77838;SDS011;67034;43.226;27.932;2023-05-29T10:56:21;8.50;;;6.60;;
77838;SDS011;67034;43.226;27.932;2023-05-29T10:58:51;10.82;;;6.40;;
77838;SDS011;67034;43.226;27.932;2023-05-29T11:01:20;11.18;;;7.25;;
77838;SDS011;67034;43.226;27.932;2023-05-29T11:03:47;7.70;;;6.60;;
77838;SDS011;67034;43.226;27.932;2023-05-29T11:06:17;9.95;;;6.93;;
77838;SDS011;67034;43.226;27.932;2023-05-29T11:08:45;10.50;;;6.97;;
77838;SDS011;67034;43.226;27.932;2023-05-29T11:11:12;9.13;;;7.10;;
77838;SDS011;67034;43.226;27.932;2023-05-29T11:13:39;6.60;;;5.35;;
77838;SDS011;67034;43.226;27.932;2023-05-29T11:16:19;8.50;;;5.10;;
77838;SDS011;67034;43.226;27.932;2023-05-29T11:19:03;5.55;;;4.50;;
77838;SDS011;67034;43.226;27.932;2023-05-29T11:21:30;6.82;;;5.13;;
77838;SDS011;67034;43.226;27.932;2023-05-29T11:24:00;6.13;;;4.38;;
77838;SDS011;67034;43.226;27.932;2023-05-29T11:26:33;5.30;;;4.40;;
77838;SDS011;67034;43.226;27.932;2023-05-29T11:29:00;4.82;;;4.32;;
77838;SDS011;67034;43.226;27.932;2023-05-29T11:31:28;5.40;;;4.22;;
77838;SDS011;67034;43.226;27.932;2023-05-29T11:33:58;4.40;;;4.00;;
77838;SDS011;67034;43.226;27.932;2023-05-29T11:36:25;4.07;;;3.53;;
77838;SDS011;67034;43.226;27.932;2023-05-29T11:38:52;3.47;;;2.97;;
77838;SDS011;67034;43.226;27.932;2023-05-29T11:41:20;3.75;;;2.78;;
77838;SDS011;67034;43.226;27.932;2023-05-29T11:43:55;4.45;;;3.05;;
77838;SDS011;67034;43.226;27.932;2023-05-29T11:46:21;5.43;;;3.38;;
77838;SDS011;67034;43.226;27.932;2023-05-29T11:48:48;3.63;;;3.10;;
77838;SDS011;67034;43.226;27.932;2023-05-29T11:51:14;3.90;;;3.15;;
77838;SDS011;67034;43.226;27.932;2023-05-29T11:53:40;5.40;;;2.90;;
77838;SDS011;67034;43.226;27.932;2023-05-29T11:56:07;6.05;;;5.20;;
77838;SDS011;67034;43.226;27.932;2023-05-29T11:58:37;6.00;;;3.75;;
77838;SDS011;67034;43.226;27.932;2023-05-29T12:01:04;3.78;;;2.80;;
77838;SDS011;67034;43.226;27.932;2023-05-29T12:03:30;3.97;;;3.00;;
77838;SDS011;67034;43.226;27.932;2023-05-29T12:05:56;4.32;;;3.40;;
77838;SDS011;67034;43.226;27.932;2023-05-29T12:08:22;4.75;;;3.60;;
77838;SDS011;67034;43.226;27.932;2023-05-29T12:10:48;3.95;;;3.28;;
77838;SDS011;67034;43.226;27.932;2023-05-29T12:13:15;4.89;;;3.36;;
77838;SDS011;67034;43.226;27.932;2023-05-29T12:15:45;3.70;;;3.00;;
77838;SDS011;67034;43.226;27.932;2023-05-29T12:18:13;4.20;;;3.10;;
77838;SDS011;67034;43.226;27.932;2023-05-29T12:20:40;7.15;;;3.92;;
77838;SDS011;67034;43.226;27.932;2023-05-29T12:23:06;4.80;;;3.80;;
77838;SDS011;67034;43.226;27.932;2023-05-29T12:25:33;4.32;;;3.67;;
77838;SDS011;67034;43.226;27.932;2023-05-29T12:28:02;5.22;;;3.53;;
77838;SDS011;67034;43.226;27.932;2023-05-29T12:30:27;4.10;;;3.45;;
77838;SDS011;67034;43.226;27.932;2023-05-29T12:32:54;5.38;;;3.90;;
77838;SDS011;67034;43.226;27.932;2023-05-29T12:35:21;5.47;;;3.95;;
77838;SDS011;67034;43.226;27.932;2023-05-29T12:37:49;4.80;;;3.85;;
77838;SDS011;67034;43.226;27.932;2023-05-29T12:40:20;5.70;;;3.97;;
77838;SDS011;67034;43.226;27.932;2023-05-29T12:42:47;5.90;;;4.03;;
77838;SDS011;67034;43.226;27.932;2023-05-29T12:45:14;5.35;;;3.85;;
77838;SDS011;67034;43.226;27.932;2023-05-29T12:47:45;4.53;;;3.60;;
77838;SDS011;67034;43.226;27.932;2023-05-29T12:50:21;4.35;;;3.60;;
77838;SDS011;67034;43.226;27.932;2023-05-29T13:54:37;5.05;;;4.30;;
77838;SDS011;67034;43.226;27.932;2023-05-29T13:57:04;6.25;;;4.65;;
77838;SDS011;67034;43.226;27.932;2023-05-29T13:59:31;5.82;;;4.68;;
77838;SDS011;67034;43.226;27.932;2023-05-29T14:01:57;5.28;;;4.40;;
77838;SDS011;67034;43.226;27.932;2023-05-29T14:04:24;6.20;;;4.63;;
77838;SDS011;67034;43.226;27.932;2023-05-29T14:06:51;5.97;;;5.00;;
77838;SDS011;67034;43.226;27.932;2023-05-29T14:09:19;5.68;;;4.43;;
77838;SDS011;67034;43.226;27.932;2023-05-29T14:11:55;6.78;;;4.70;;
77838;SDS011;67034;43.226;27.932;2023-05-29T14:17:11;7.65;;;4.97;;
77838;SDS011;67034;43.226;27.932;2023-05-29T14:19:39;5.47;;;4.82;;
77838;SDS011;67034;43.226;27.932;2023-05-29T14:22:05;5.57;;;4.55;;
77838;SDS011;67034;43.226;27.932;2023-05-29T14:24:32;5.68;;;4.45;;
77838;SDS011;67034;43.226;27.932;2023-05-29T14:26:58;6.57;;;4.90;;
77838;SDS011;67034;43.226;27.932;2023-05-29T14:29:23;5.63;;;4.68;;
77838;SDS011;67034;43.226;27.932;2023-05-29T14:31:49;5.40;;;4.35;;
77838;SDS011;67034;43.226;27.932;2023-05-29T14:34:15;6.32;;;4.95;;
77838;SDS011;67034;43.226;27.932;2023-05-29T14:36:42;5.60;;;4.38;;
77838;SDS011;67034;43.226;27.932;2023-05-29T14:39:09;6.30;;;4.93;;
77838;SDS011;67034;43.226;27.932;2023-05-29T14:41:37;7.20;;;5.03;;
77838;SDS011;67034;43.226;27.932;2023-05-29T14:44:03;7.75;;;5.32;;
77838;SDS011;67034;43.226;27.932;2023-05-29T14:46:29;6.57;;;4.25;;
77838;SDS011;67034;43.226;27.932;2023-05-29T14:48:57;6.47;;;4.70;;
77838;SDS011;67034;43.226;27.932;2023-05-29T14:51:23;7.57;;;4.88;;
77838;SDS011;67034;43.226;27.932;2023-05-29T14:53:50;10.07;;;5.50;;
77838;SDS011;67034;43.226;27.932;2023-05-29T14:56:16;8.82;;;4.85;;
77838;SDS011;67034;43.226;27.932;2023-05-29T14:58:44;6.70;;;4.72;;
77838;SDS011;67034;43.226;27.932;2023-05-29T15:01:10;6.45;;;5.13;;
77838;SDS011;67034;43.226;27.932;2023-05-29T15:03:36;6.28;;;4.75;;
77838;SDS011;67034;43.226;27.932;2023-05-29T15:06:02;8.50;;;5.05;;
77838;SDS011;67034;43.226;27.932;2023-05-29T15:08:28;7.10;;;4.72;;
77838;SDS011;67034;43.226;27.932;2023-05-29T15:10:59;6.40;;;4.70;;
77838;SDS011;67034;43.226;27.932;2023-05-29T15:13:25;7.95;;;4.95;;
77838;SDS011;67034;43.226;27.932;2023-05-29T15:15:52;6.35;;;4.78;;
77838;SDS011;67034;43.226;27.932;2023-05-29T15:18:18;6.10;;;4.47;;
77838;SDS011;67034;43.226;27.932;2023-05-29T15:20:43;6.35;;;5.00;;
77838;SDS011;67034;43.226;27.932;2023-05-29T15:23:09;6.93;;;4.78;;
77838;SDS011;67034;43.226;27.932;2023-05-29T15:25:35;5.05;;;4.50;;
77838;SDS011;67034;43.226;27.932;2023-05-29T15:28:00;5.65;;;4.63;;
77838;SDS011;67034;43.226;27.932;2023-05-29T15:30:28;5.75;;;4.22;;
77838;SDS011;67034;43.226;27.932;2023-05-29T15:32:55;6.13;;;4.60;;
77838;SDS011;67034;43.226;27.932;2023-05-29T15:35:20;6.95;;;4.53;;
77838;SDS011;67034;43.226;27.932;2023-05-29T15:37:46;6.80;;;4.68;;